createdAt,value
2022-12-05T00:01:23.571Z,20.00
2022-12-05T00:03:55.713Z,23.48
2022-12-05T00:06:28.020Z,21.75
2022-12-05T00:08:59.207Z,22.50
2022-12-05T00:11:31.511Z,24.05
2022-12-05T00:14:03.236Z,22.77
2022-12-05T00:16:37.044Z,22.55
2022-12-05T00:19:09.771Z,21.67
2022-12-05T00:21:40.965Z,24.60
2022-12-05T00:24:14.508Z,22.33
2022-12-05T00:26:44.834Z,22.50
2022-12-05T00:29:15.848Z,19.33
2022-12-05T00:31:48.696Z,21.67
2022-12-05T00:34:20.079Z,22.85
2022-12-05T00:36:51.217Z,25.95
2022-12-05T00:39:21.267Z,21.67
2022-12-05T00:41:51.202Z,21.27
2022-12-05T00:44:21.781Z,20.00
2022-12-05T00:46:54.336Z,22.63
2022-12-05T00:49:24.290Z,24.80
2022-12-05T00:51:54.287Z,25.75
2022-12-05T00:54:24.436Z,36.35
2022-12-05T00:56:56.379Z,33.92
2022-12-05T00:59:26.733Z,41.30
2022-12-05T01:01:59.341Z,27.77
2022-12-05T01:04:30.064Z,23.67
2022-12-05T01:07:01.444Z,32.13
2022-12-05T01:09:31.472Z,30.20
2022-12-05T01:12:01.452Z,32.92
2022-12-05T01:14:31.449Z,27.30
2022-12-05T01:17:04.189Z,29.55
2022-12-05T01:19:36.191Z,30.35
2022-12-05T01:22:06.173Z,40.95
2022-12-05T01:24:36.392Z,36.08
2022-12-05T01:27:06.508Z,24.52
2022-12-05T01:29:36.983Z,29.27
2022-12-05T01:32:10.064Z,30.10
2022-12-05T01:34:40.390Z,31.27
2022-12-05T01:37:10.699Z,27.00
2022-12-05T01:39:40.996Z,24.08
2022-12-05T01:42:11.277Z,36.40
2022-12-05T01:45:04.155Z,31.92
2022-12-05T01:47:39.286Z,32.63
2022-12-05T01:50:11.174Z,33.80
2022-12-05T01:52:42.221Z,29.75
2022-12-05T01:55:15.745Z,27.50
2022-12-05T01:57:46.675Z,44.05
2022-12-05T02:00:19.408Z,37.92
2022-12-05T02:02:55.481Z,33.85
2022-12-05T02:05:29.102Z,31.92
2022-12-05T02:08:01.294Z,29.33
2022-12-05T02:10:34.049Z,48.28
2022-12-05T02:13:14.365Z,33.70
2022-12-05T02:15:55.455Z,39.10
2022-12-05T02:18:43.956Z,39.13
2022-12-05T02:21:39.315Z,26.05
2022-12-05T02:24:44.767Z,52.95
2022-12-05T02:27:29.707Z,31.75
2022-12-05T02:30:10.565Z,42.53
2022-12-05T02:33:04.020Z,36.17
2022-12-05T02:35:44.114Z,30.25
2022-12-05T02:38:22.948Z,32.45
2022-12-05T02:41:01.163Z,35.75
2022-12-05T02:43:35.397Z,31.73
2022-12-05T02:46:12.794Z,30.30
2022-12-05T02:48:46.017Z,48.40
2022-12-05T02:51:20.594Z,54.88
2022-12-05T02:53:52.246Z,29.38
2022-12-05T02:56:23.313Z,29.63
2022-12-05T02:58:57.366Z,33.25
2022-12-05T03:01:33.465Z,28.88
2022-12-05T03:04:06.969Z,30.70
2022-12-05T03:06:40.028Z,31.70
2022-12-05T03:09:14.705Z,29.40
2022-12-05T03:11:48.912Z,31.50
2022-12-05T03:14:25.367Z,30.55
2022-12-05T03:17:03.770Z,25.58
2022-12-05T03:19:39.799Z,26.90
2022-12-05T03:22:13.310Z,30.48
2022-12-05T03:24:44.620Z,28.65
2022-12-05T03:27:20.501Z,31.55
2022-12-05T03:29:56.233Z,33.42
2022-12-05T03:32:35.253Z,28.80
2022-12-05T03:35:12.574Z,33.38
2022-12-05T03:37:52.480Z,29.88
2022-12-05T03:40:32.405Z,28.48
2022-12-05T03:43:09.881Z,29.58
2022-12-05T03:45:45.993Z,26.20
2022-12-05T03:48:26.436Z,25.05
2022-12-05T03:50:57.203Z,27.25
2022-12-05T03:53:31.244Z,29.88
2022-12-05T03:56:07.526Z,33.60
2022-12-05T03:58:42.702Z,28.75
2022-12-05T04:01:14.942Z,32.90
2022-12-05T04:03:52.242Z,30.85
2022-12-05T04:06:26.382Z,31.38
2022-12-05T04:09:00.474Z,27.15
2022-12-05T04:11:34.190Z,28.58
2022-12-05T04:14:08.273Z,26.13
2022-12-05T04:16:56.445Z,25.50
2022-12-05T04:19:52.357Z,28.98
2022-12-05T04:22:20.617Z,29.58
2022-12-05T04:25:05.588Z,27.33
2022-12-05T04:27:42.949Z,31.48
2022-12-05T04:30:16.720Z,28.23
2022-12-05T04:32:52.268Z,27.92
2022-12-05T04:35:30.616Z,30.88
2022-12-05T04:38:06.648Z,31.55
2022-12-05T04:40:40.950Z,34.97
2022-12-05T04:43:12.657Z,29.77
2022-12-05T04:45:43.757Z,27.38
2022-12-05T04:48:17.033Z,32.25
2022-12-05T04:50:52.458Z,31.92
2022-12-05T04:53:24.314Z,25.98
2022-12-05T04:56:01.901Z,30.65
2022-12-05T04:58:33.902Z,28.67
2022-12-05T05:01:10.448Z,29.33
2022-12-05T05:03:45.901Z,30.15
2022-12-05T05:06:18.895Z,29.00
2022-12-05T05:08:54.452Z,35.05
2022-12-05T05:11:26.243Z,30.90
2022-12-05T05:13:56.877Z,29.35
2022-12-05T05:16:29.447Z,33.33
2022-12-05T05:18:59.942Z,27.88
2022-12-05T05:21:34.620Z,34.85
2022-12-05T05:24:05.213Z,32.25
2022-12-05T05:26:38.011Z,31.65
2022-12-05T05:29:09.723Z,32.15
2022-12-05T05:31:41.021Z,30.58
2022-12-05T05:34:11.963Z,29.77
2022-12-05T05:36:45.297Z,31.98
2022-12-05T05:39:17.982Z,30.35
2022-12-05T05:41:48.025Z,33.88
2022-12-05T05:44:18.159Z,38.70
2022-12-05T05:46:48.306Z,33.17
2022-12-05T05:49:18.402Z,30.48
2022-12-05T05:51:50.927Z,35.70
2022-12-05T05:54:20.896Z,35.55
2022-12-05T05:56:50.849Z,35.95
2022-12-05T05:59:20.827Z,33.65
2022-12-05T06:01:50.834Z,32.92
2022-12-05T06:04:20.872Z,33.00
2022-12-05T06:06:53.536Z,62.38
2022-12-05T06:09:23.503Z,34.08
2022-12-05T06:11:53.556Z,31.88
2022-12-05T06:14:23.911Z,31.75
2022-12-05T06:16:54.127Z,31.65
2022-12-05T06:19:24.187Z,32.08
2022-12-05T06:21:56.935Z,26.90
2022-12-05T06:24:26.968Z,31.63
2022-12-05T06:26:56.986Z,35.95
2022-12-05T06:29:31.133Z,28.35
2022-12-05T06:32:03.906Z,28.65
2022-12-05T06:34:35.617Z,31.30
2022-12-05T06:37:08.209Z,30.67
2022-12-05T06:39:38.704Z,31.13
2022-12-05T06:42:08.854Z,28.60
2022-12-05T06:44:39.109Z,27.73
2022-12-05T06:47:09.062Z,29.38
2022-12-05T06:49:39.300Z,26.65
2022-12-05T06:52:11.985Z,28.83
2022-12-05T06:54:42.126Z,24.80
2022-12-05T06:57:12.544Z,23.67
2022-12-05T06:59:42.627Z,26.30
2022-12-05T07:02:15.670Z,28.55
2022-12-05T07:04:45.873Z,28.63
2022-12-05T07:07:18.551Z,28.73
2022-12-05T07:09:48.828Z,30.77
2022-12-05T07:12:21.185Z,27.80
2022-12-05T07:14:51.202Z,27.77
2022-12-05T07:17:21.995Z,33.10
2022-12-05T07:19:52.485Z,26.50
2022-12-05T07:22:26.330Z,37.67
2022-12-05T07:24:56.334Z,29.58
2022-12-05T07:27:27.965Z,31.20
2022-12-05T07:29:58.877Z,29.70
2022-12-05T07:32:29.688Z,26.38
2022-12-05T07:34:59.754Z,34.50
2022-12-05T07:37:32.670Z,32.30
2022-12-05T07:40:02.645Z,28.05
2022-12-05T07:42:32.623Z,31.25
2022-12-05T07:45:02.739Z,28.02
2022-12-05T07:47:33.524Z,29.88
2022-12-05T07:50:03.787Z,30.42
2022-12-05T07:52:36.486Z,29.98
2022-12-05T07:55:07.629Z,33.33
2022-12-05T07:57:37.787Z,31.73
2022-12-05T08:00:09.606Z,28.98
2022-12-05T08:02:40.995Z,30.98
2022-12-05T08:05:11.678Z,26.48
2022-12-05T08:07:44.405Z,25.00
2022-12-05T08:10:14.845Z,27.95
2022-12-05T08:12:44.872Z,29.80
2022-12-05T08:15:15.438Z,27.08
2022-12-05T08:17:45.771Z,26.50
2022-12-05T08:20:17.000Z,28.95
2022-12-05T08:22:52.485Z,25.80
2022-12-05T08:25:23.033Z,27.30
2022-12-05T08:27:53.129Z,32.30
2022-12-05T08:30:23.357Z,29.92
2022-12-05T08:32:53.496Z,30.30
2022-12-05T08:35:23.522Z,25.85
2022-12-05T08:37:56.565Z,27.20
2022-12-05T08:40:26.814Z,24.92
2022-12-05T08:42:56.911Z,25.73
2022-12-05T08:45:27.018Z,27.67
2022-12-05T08:47:57.155Z,25.42
2022-12-05T08:50:27.251Z,22.35
2022-12-05T08:52:59.923Z,24.45
2022-12-05T08:55:29.945Z,24.90
2022-12-05T08:57:59.993Z,21.88
2022-12-05T09:00:29.986Z,24.33
2022-12-05T09:03:00.053Z,21.60
2022-12-05T09:05:30.613Z,24.00
2022-12-05T09:08:04.263Z,22.58
2022-12-05T09:10:34.466Z,20.67
2022-12-05T09:13:04.531Z,18.70
2022-12-05T09:15:34.650Z,19.13
2022-12-05T09:18:04.773Z,17.90
2022-12-05T09:20:34.989Z,17.85
2022-12-05T09:23:11.632Z,16.60
2022-12-05T09:25:44.576Z,15.20
2022-12-05T09:28:14.606Z,13.20
2022-12-05T09:30:44.732Z,13.48
2022-12-05T09:33:14.755Z,12.90
2022-12-05T09:35:44.767Z,15.10
2022-12-05T09:38:17.495Z,12.93
2022-12-05T09:40:47.996Z,17.00
2022-12-05T09:43:28.579Z,14.45
2022-12-05T09:46:06.567Z,13.10
2022-12-05T09:51:08.153Z,14.52
2022-12-05T09:53:43.247Z,13.15
2022-12-05T09:56:30.524Z,15.18
2022-12-05T09:59:02.497Z,12.45
2022-12-05T10:01:41.759Z,13.23
2022-12-05T10:04:33.499Z,11.80
2022-12-05T10:07:10.719Z,10.63
2022-12-05T10:10:03.130Z,15.77
2022-12-05T10:12:52.808Z,11.05
2022-12-05T10:15:31.139Z,13.70
2022-12-05T10:18:05.422Z,10.50
2022-12-05T10:20:39.046Z,13.48
2022-12-05T10:23:34.580Z,15.35
2022-12-05T10:26:13.012Z,12.65
2022-12-05T10:28:52.737Z,12.10
2022-12-05T10:31:30.800Z,13.38
2022-12-05T10:34:14.889Z,10.50
2022-12-05T10:36:52.807Z,13.18
2022-12-05T10:39:23.161Z,13.85
2022-12-05T10:41:56.915Z,19.45
2022-12-05T10:44:30.454Z,21.40
2022-12-05T10:47:01.800Z,16.00
2022-12-05T10:52:02.507Z,11.07
2022-12-05T10:54:35.810Z,10.57
2022-12-05T10:57:24.422Z,13.43
2022-12-05T10:59:54.676Z,13.50
2022-12-05T11:02:29.049Z,13.32
2022-12-05T11:05:00.489Z,16.02
2022-12-05T11:07:34.588Z,14.55
2022-12-05T11:10:07.372Z,14.80
2022-12-05T11:12:43.124Z,10.93
2022-12-05T11:15:25.793Z,11.57
2022-12-05T11:17:57.091Z,11.93
2022-12-05T11:20:43.133Z,17.15
2022-12-05T11:23:26.160Z,12.85
2022-12-05T11:25:57.645Z,12.35
2022-12-05T11:31:04.378Z,12.93
2022-12-05T11:33:36.986Z,12.02
2022-12-05T11:36:14.906Z,11.65
2022-12-05T11:41:38.925Z,16.35
2022-12-05T11:44:33.823Z,15.05
2022-12-05T11:47:17.242Z,11.50
2022-12-05T11:50:05.062Z,13.98
2022-12-05T11:52:48.114Z,14.27
2022-12-05T11:55:22.997Z,13.93
2022-12-05T11:58:25.693Z,12.30
2022-12-05T12:01:10.591Z,15.50
2022-12-05T12:04:16.605Z,12.40
2022-12-05T12:06:56.800Z,13.90
2022-12-05T12:09:41.833Z,13.45
2022-12-05T12:12:20.830Z,14.50
2022-12-05T12:15:06.039Z,19.30
2022-12-05T12:17:53.477Z,12.70
2022-12-05T12:20:37.517Z,12.88
2022-12-05T12:23:22.665Z,14.50
2022-12-05T12:26:06.409Z,14.10
2022-12-05T12:28:45.759Z,15.50
2022-12-05T12:31:33.691Z,16.30
2022-12-05T12:34:31.332Z,13.60
2022-12-05T12:37:09.659Z,15.02
2022-12-05T12:39:52.371Z,15.70
2022-12-05T12:42:27.637Z,15.10
2022-12-05T12:45:16.039Z,17.48
2022-12-05T12:48:01.683Z,16.42
2022-12-05T12:50:41.844Z,15.30
2022-12-05T12:53:50.362Z,23.45
2022-12-05T12:56:31.017Z,17.33
2022-12-05T12:59:09.415Z,16.92
2022-12-05T13:01:45.193Z,18.55
2022-12-05T13:04:18.418Z,20.33
2022-12-05T13:06:56.859Z,26.55
2022-12-05T13:09:31.412Z,21.00
2022-12-05T13:12:07.810Z,18.80
2022-12-05T13:14:40.495Z,16.90
2022-12-05T13:17:17.356Z,16.95
2022-12-05T13:19:52.195Z,15.70
2022-12-05T13:22:28.360Z,16.88
2022-12-05T13:24:58.854Z,15.70
2022-12-05T13:27:31.429Z,17.95
2022-12-05T13:30:09.341Z,16.75
2022-12-05T13:32:44.823Z,15.43
2022-12-05T13:38:18.416Z,14.90
2022-12-05T13:41:07.618Z,15.32
2022-12-05T13:43:49.753Z,15.63
2022-12-05T13:46:31.983Z,18.80
2022-12-05T13:49:07.172Z,16.92
2022-12-05T13:51:40.649Z,16.95
2022-12-05T13:54:18.769Z,19.25
2022-12-05T13:56:54.812Z,21.25
2022-12-05T13:59:55.004Z,15.18
2022-12-05T14:02:53.084Z,19.60
2022-12-05T14:05:42.801Z,14.50
2022-12-05T14:08:45.322Z,13.63
2022-12-05T14:11:18.425Z,14.75
2022-12-05T14:13:48.937Z,13.85
2022-12-05T14:16:46.908Z,13.48
2022-12-05T14:19:55.572Z,13.00
2022-12-05T14:22:40.044Z,13.15
2022-12-05T14:25:26.308Z,13.25
2022-12-05T14:28:05.279Z,13.15
2022-12-05T14:30:46.832Z,13.50
2022-12-05T14:33:19.030Z,12.15
2022-12-05T14:35:51.680Z,12.73
2022-12-05T14:38:31.096Z,12.95
2022-12-05T14:41:16.823Z,14.80
2022-12-05T14:43:56.543Z,12.95
2022-12-05T14:46:30.306Z,13.73
2022-12-05T14:49:00.845Z,15.07
2022-12-05T14:51:47.170Z,26.45
2022-12-05T14:54:20.046Z,16.92
2022-12-05T14:56:54.669Z,13.40
2022-12-05T14:59:35.462Z,14.45
2022-12-05T15:02:06.791Z,12.20
2022-12-05T15:07:15.271Z,11.25
2022-12-05T15:09:59.141Z,13.25
2022-12-05T15:12:32.758Z,13.60
2022-12-05T15:15:13.688Z,12.77
2022-12-05T15:17:50.038Z,13.30
2022-12-05T15:20:27.201Z,12.38
2022-12-05T15:22:57.214Z,12.50
2022-12-05T15:25:35.713Z,11.73
2022-12-05T15:28:15.031Z,12.40
2022-12-05T15:30:57.259Z,11.25
2022-12-05T15:33:29.304Z,18.10
2022-12-05T15:36:01.572Z,13.88
2022-12-05T15:38:34.117Z,14.40
2022-12-05T15:41:04.156Z,14.05
2022-12-05T15:43:37.533Z,13.77
2022-12-05T15:46:24.540Z,15.90
2022-12-05T15:48:55.208Z,16.88
2022-12-05T15:51:30.207Z,14.60
2022-12-05T15:54:04.324Z,16.95
2022-12-05T15:56:40.496Z,16.45
2022-12-05T15:59:17.827Z,13.82
2022-12-05T16:01:54.621Z,14.02
2022-12-05T16:04:32.649Z,20.67
2022-12-05T16:09:41.578Z,11.00
2022-12-05T16:12:27.374Z,14.02
2022-12-05T16:15:01.341Z,15.63
2022-12-05T16:17:43.351Z,16.10
2022-12-05T16:20:15.429Z,15.07
2022-12-05T16:22:48.039Z,16.15
2022-12-05T16:25:20.219Z,17.45
2022-12-05T16:28:00.427Z,13.48
2022-12-05T16:30:31.472Z,16.88
2022-12-05T16:33:08.937Z,19.33
2022-12-05T16:35:40.763Z,19.25
2022-12-05T16:38:15.316Z,14.63
2022-12-05T16:40:55.791Z,17.10
2022-12-05T16:43:43.352Z,28.35
2022-12-05T16:46:46.069Z,23.08
2022-12-05T16:49:42.614Z,19.48
2022-12-05T16:52:17.607Z,13.63
2022-12-05T16:54:50.763Z,50.10
2022-12-05T16:57:21.026Z,17.67
2022-12-05T16:59:51.214Z,16.00
2022-12-05T17:02:21.900Z,16.25
2022-12-05T17:04:56.015Z,15.18
2022-12-05T17:07:29.740Z,13.68
2022-12-05T17:10:03.706Z,12.60
2022-12-05T17:12:34.544Z,14.10
2022-12-05T17:15:04.706Z,10.82
2022-12-05T17:17:34.956Z,11.25
2022-12-05T17:20:08.975Z,13.25
2022-12-05T17:22:39.076Z,10.45
2022-12-05T17:25:20.546Z,13.57
2022-12-05T17:27:50.572Z,10.77
2022-12-05T17:30:20.754Z,15.95
2022-12-05T17:32:50.787Z,29.08
2022-12-05T17:35:25.459Z,14.48
2022-12-05T17:37:55.594Z,10.15
2022-12-05T17:40:26.111Z,11.52
2022-12-05T17:42:56.112Z,14.77
2022-12-05T17:45:26.252Z,9.40
2022-12-05T17:47:56.385Z,9.43
2022-12-05T17:50:30.156Z,9.30
2022-12-05T17:53:07.051Z,15.02
2022-12-05T17:55:37.693Z,10.25
2022-12-05T17:58:07.865Z,12.43
2022-12-05T18:00:38.193Z,10.93
2022-12-05T18:03:08.321Z,18.55
2022-12-05T18:05:41.307Z,11.15
2022-12-05T18:08:13.049Z,9.32
2022-12-05T18:10:44.807Z,9.68
2022-12-05T18:13:15.323Z,9.35
2022-12-05T18:15:45.894Z,9.75
2022-12-05T18:18:18.908Z,12.70
2022-12-05T18:20:51.931Z,10.60
2022-12-05T18:23:21.945Z,12.40
2022-12-05T18:26:01.084Z,14.63
2022-12-05T18:28:31.201Z,9.48
2022-12-05T18:31:12.263Z,10.25
2022-12-05T18:33:42.585Z,8.27
2022-12-05T18:36:17.388Z,10.63
2022-12-05T18:38:52.999Z,9.70
2022-12-05T18:41:24.176Z,9.50
2022-12-05T18:43:54.663Z,10.55
2022-12-05T18:46:25.288Z,9.65
2022-12-05T18:48:58.949Z,11.15
2022-12-05T18:51:35.099Z,10.05
2022-12-05T18:54:05.149Z,8.95
2022-12-05T18:56:38.497Z,8.95
2022-12-05T18:59:10.427Z,9.80
2022-12-05T19:01:42.144Z,9.02
2022-12-05T19:04:15.243Z,23.20
2022-12-05T19:06:52.399Z,42.45
2022-12-05T19:09:24.544Z,10.90
2022-12-05T19:11:57.266Z,9.10
2022-12-05T19:14:29.647Z,10.75
2022-12-05T19:17:00.597Z,9.77
2022-12-05T19:19:31.432Z,10.88
2022-12-05T19:22:04.457Z,9.07
2022-12-05T19:24:34.626Z,9.32
2022-12-05T19:27:04.720Z,10.80
2022-12-05T19:29:34.862Z,13.10
2022-12-05T19:32:05.102Z,8.98
2022-12-05T19:34:36.473Z,9.98
2022-12-05T19:39:39.082Z,11.68
2022-12-05T19:42:09.407Z,8.40
2022-12-05T19:44:39.475Z,10.73
2022-12-05T19:47:09.994Z,8.15
2022-12-05T19:49:40.063Z,8.90
2022-12-05T19:52:13.227Z,8.00
2022-12-05T19:54:43.337Z,26.15
2022-12-05T19:57:13.691Z,62.28
2022-12-05T19:59:43.778Z,26.23
2022-12-05T20:02:13.995Z,21.65
2022-12-05T20:04:44.261Z,21.33
2022-12-05T20:07:17.911Z,24.20
2022-12-05T20:09:47.864Z,42.72
2022-12-05T20:12:17.980Z,25.33
2022-12-05T20:14:51.399Z,23.88
2022-12-05T20:17:21.931Z,16.38
2022-12-05T20:19:51.988Z,16.10
2022-12-05T20:22:26.205Z,21.23
2022-12-05T20:24:56.381Z,17.00
2022-12-05T20:27:27.703Z,18.00
2022-12-05T20:29:58.003Z,17.95
2022-12-05T20:32:28.721Z,20.92
2022-12-05T20:34:58.760Z,25.90
2022-12-05T20:37:35.402Z,40.20
2022-12-05T20:40:06.502Z,47.47
2022-12-05T20:42:38.149Z,29.45
2022-12-05T20:45:11.215Z,42.38
2022-12-05T20:50:12.684Z,21.63
2022-12-05T20:52:47.108Z,35.45
2022-12-05T20:55:17.409Z,39.17
2022-12-05T20:57:47.563Z,36.00
2022-12-05T21:00:18.070Z,28.00
2022-12-05T21:02:48.185Z,21.15
2022-12-05T21:05:18.461Z,14.15
2022-12-05T21:07:51.291Z,12.75
2022-12-05T21:10:21.344Z,12.35
2022-12-05T21:12:51.521Z,10.65
2022-12-05T21:15:21.884Z,10.50
2022-12-05T21:17:52.207Z,10.00
2022-12-05T21:20:22.218Z,11.52
2022-12-05T21:22:54.964Z,11.32
2022-12-05T21:25:25.081Z,10.98
2022-12-05T21:27:55.462Z,9.48
2022-12-05T21:30:25.526Z,9.02
2022-12-05T21:32:55.744Z,18.55
2022-12-05T21:35:25.776Z,15.13
2022-12-05T21:37:58.537Z,24.63
2022-12-05T21:40:29.675Z,39.70
2022-12-05T21:42:59.787Z,43.60
2022-12-05T21:45:29.794Z,23.13
2022-12-05T21:47:59.917Z,13.02
2022-12-05T21:50:29.987Z,12.60
2022-12-05T21:53:02.761Z,12.82
2022-12-05T21:55:32.840Z,15.10
2022-12-05T21:58:02.929Z,14.07
2022-12-05T22:00:33.020Z,9.32
2022-12-05T22:03:03.159Z,11.07
2022-12-05T22:05:33.527Z,35.35
2022-12-05T22:08:06.896Z,13.82
2022-12-05T22:10:37.102Z,20.65
2022-12-05T22:13:08.289Z,18.75
2022-12-05T22:15:38.416Z,16.67
2022-12-05T22:18:09.158Z,23.38
2022-12-05T22:20:39.254Z,19.20
2022-12-05T22:23:16.657Z,12.32
2022-12-05T22:25:47.034Z,17.55
2022-12-05T22:28:17.177Z,21.65
2022-12-05T22:30:49.906Z,18.60
2022-12-05T22:33:20.290Z,20.67
2022-12-05T22:35:55.460Z,14.80
2022-12-05T22:38:29.471Z,27.42
2022-12-05T22:41:01.141Z,22.27
2022-12-05T22:43:32.699Z,17.63
2022-12-05T22:46:07.006Z,14.38
2022-12-05T22:48:37.573Z,26.33
2022-12-05T22:51:09.056Z,16.95
2022-12-05T22:53:41.718Z,17.88
2022-12-05T22:56:13.910Z,12.15
2022-12-05T22:58:45.231Z,16.33
2022-12-05T23:01:17.495Z,29.50
2022-12-05T23:03:49.840Z,65.47
2022-12-05T23:06:21.479Z,54.47
2022-12-05T23:08:54.488Z,28.05
2022-12-05T23:11:27.239Z,26.98
2022-12-05T23:14:02.202Z,16.73
2022-12-05T23:16:36.174Z,31.88
2022-12-05T23:19:08.883Z,25.05
2022-12-05T23:21:41.038Z,24.80
2022-12-05T23:24:15.922Z,18.80
2022-12-05T23:26:47.691Z,29.17
2022-12-05T23:29:18.522Z,20.92
2022-12-05T23:31:48.918Z,18.35
2022-12-05T23:34:19.576Z,31.42
2022-12-05T23:36:50.568Z,66.47
2022-12-05T23:39:24.142Z,26.65
2022-12-05T23:41:54.658Z,44.33
2022-12-05T23:44:25.483Z,29.85
2022-12-05T23:46:56.002Z,25.60
2022-12-05T23:49:26.463Z,36.15
2022-12-05T23:51:56.914Z,16.92
2022-12-05T23:54:29.961Z,11.60
2022-12-05T23:57:00.334Z,10.10
2022-12-05T23:59:30.955Z,8.30
